sensor_id;sensor_type;location;lat;lon;timestamp;temperature;humidity
20070;DHT22;10195;50.868;4.382;2022-07-12T00:01:39;20.00;99.90
20070;DHT22;10195;50.868;4.382;2022-07-12T00:04:04;19.90;99.90
20070;DHT22;10195;50.868;4.382;2022-07-12T00:06:30;19.90;99.90
20070;DHT22;10195;50.868;4.382;2022-07-12T00:08:56;19.90;99.90
20070;DHT22;10195;50.868;4.382;2022-07-12T00:11:21;19.90;99.90
20070;DHT22;10195;50.868;4.382;2022-07-12T00:13:47;19.80;99.90
20070;DHT22;10195;50.868;4.382;2022-07-12T00:16:12;19.80;99.90
20070;DHT22;10195;50.868;4.382;2022-07-12T00:18:38;19.80;99.90
20070;DHT22;10195;50.868;4.382;2022-07-12T00:21:04;19.70;99.90
20070;DHT22;10195;50.868;4.382;2022-07-12T00:23:30;19.80;99.90
20070;DHT22;10195;50.868;4.382;2022-07-12T00:25:56;19.80;99.90
20070;DHT22;10195;50.868;4.382;2022-07-12T00:28:21;19.70;99.90
20070;DHT22;10195;50.868;4.382;2022-07-12T00:30:47;19.70;99.90
20070;DHT22;10195;50.868;4.382;2022-07-12T00:33:12;19.70;99.90
20070;DHT22;10195;50.868;4.382;2022-07-12T00:35:38;19.60;99.90
20070;DHT22;10195;50.868;4.382;2022-07-12T00:38:03;19.60;99.90
20070;DHT22;10195;50.868;4.382;2022-07-12T00:40:29;19.60;99.90
20070;DHT22;10195;50.868;4.382;2022-07-12T00:42:55;19.60;99.90
20070;DHT22;10195;50.868;4.382;2022-07-12T00:45:20;19.60;99.90
20070;DHT22;10195;50.868;4.382;2022-07-12T00:47:46;19.60;99.90
20070;DHT22;10195;50.868;4.382;2022-07-12T00:50:17;19.60;99.90
20070;DHT22;10195;50.868;4.382;2022-07-12T00:52:44;19.50;99.90
20070;DHT22;10195;50.868;4.382;2022-07-12T00:55:11;19.50;99.90
20070;DHT22;10195;50.868;4.382;2022-07-12T00:57:38;19.40;99.90
20070;DHT22;10195;50.868;4.382;2022-07-12T01:00:07;19.40;99.90
20070;DHT22;10195;50.868;4.382;2022-07-12T01:02:37;19.30;99.90
20070;DHT22;10195;50.868;4.382;2022-07-12T01:05:07;19.20;99.90
20070;DHT22;10195;50.868;4.382;2022-07-12T01:07:34;19.20;99.90
20070;DHT22;10195;50.868;4.382;2022-07-12T01:10:00;19.20;99.90
20070;DHT22;10195;50.868;4.382;2022-07-12T01:12:27;19.20;99.90
20070;DHT22;10195;50.868;4.382;2022-07-12T01:14:53;19.20;99.90
20070;DHT22;10195;50.868;4.382;2022-07-12T01:17:23;19.10;99.90
20070;DHT22;10195;50.868;4.382;2022-07-12T01:19:50;19.20;99.90
20070;DHT22;10195;50.868;4.382;2022-07-12T01:22:17;19.20;99.90
20070;DHT22;10195;50.868;4.382;2022-07-12T01:24:44;19.10;99.90
20070;DHT22;10195;50.868;4.382;2022-07-12T01:27:11;19.10;99.90
20070;DHT22;10195;50.868;4.382;2022-07-12T01:29:37;19.20;99.90
20070;DHT22;10195;50.868;4.382;2022-07-12T01:32:04;19.20;99.90
20070;DHT22;10195;50.868;4.382;2022-07-12T01:37:17;19.00;99.90
20070;DHT22;10195;50.868;4.382;2022-07-12T01:39:44;18.90;99.90
20070;DHT22;10195;50.868;4.382;2022-07-12T01:42:10;18.90;99.90
20070;DHT22;10195;50.868;4.382;2022-07-12T01:44:35;18.90;99.90
20070;DHT22;10195;50.868;4.382;2022-07-12T01:47:02;18.80;99.90
20070;DHT22;10195;50.868;4.382;2022-07-12T01:49:27;18.90;99.90
20070;DHT22;10195;50.868;4.382;2022-07-12T01:51:57;18.80;99.90
20070;DHT22;10195;50.868;4.382;2022-07-12T01:54:27;18.90;99.90
20070;DHT22;10195;50.868;4.382;2022-07-12T01:56:53;18.80;99.90
20070;DHT22;10195;50.868;4.382;2022-07-12T01:59:19;18.80;99.90
20070;DHT22;10195;50.868;4.382;2022-07-12T02:01:45;18.90;99.90
20070;DHT22;10195;50.868;4.382;2022-07-12T02:04:11;18.80;99.90
20070;DHT22;10195;50.868;4.382;2022-07-12T02:06:38;18.70;99.90
20070;DHT22;10195;50.868;4.382;2022-07-12T02:09:04;18.70;99.90
20070;DHT22;10195;50.868;4.382;2022-07-12T02:11:30;18.60;99.90
20070;DHT22;10195;50.868;4.382;2022-07-12T02:13:56;18.60;99.90
20070;DHT22;10195;50.868;4.382;2022-07-12T02:16:21;18.60;99.90
20070;DHT22;10195;50.868;4.382;2022-07-12T02:18:47;18.60;99.90
20070;DHT22;10195;50.868;4.382;2022-07-12T02:21:13;18.60;99.90
20070;DHT22;10195;50.868;4.382;2022-07-12T02:23:38;18.60;99.90
20070;DHT22;10195;50.868;4.382;2022-07-12T02:26:04;18.60;99.90
20070;DHT22;10195;50.868;4.382;2022-07-12T02:28:29;18.60;99.90
20070;DHT22;10195;50.868;4.382;2022-07-12T02:30:57;18.60;99.90
20070;DHT22;10195;50.868;4.382;2022-07-12T02:33:23;18.70;99.90
20070;DHT22;10195;50.868;4.382;2022-07-12T02:35:48;18.70;99.90
20070;DHT22;10195;50.868;4.382;2022-07-12T02:38:14;18.60;99.90
20070;DHT22;10195;50.868;4.382;2022-07-12T02:40:39;18.50;99.90
20070;DHT22;10195;50.868;4.382;2022-07-12T02:43:27;18.50;99.90
20070;DHT22;10195;50.868;4.382;2022-07-12T02:45:55;18.50;99.90
20070;DHT22;10195;50.868;4.382;2022-07-12T02:48:24;18.40;99.90
20070;DHT22;10195;50.868;4.382;2022-07-12T02:50:50;18.40;99.90
20070;DHT22;10195;50.868;4.382;2022-07-12T02:53:15;18.40;99.90
20070;DHT22;10195;50.868;4.382;2022-07-12T02:55:41;18.50;99.90
20070;DHT22;10195;50.868;4.382;2022-07-12T02:58:07;18.50;99.90
20070;DHT22;10195;50.868;4.382;2022-07-12T03:00:34;18.50;99.90
20070;DHT22;10195;50.868;4.382;2022-07-12T03:03:03;18.40;99.90
20070;DHT22;10195;50.868;4.382;2022-07-12T03:05:29;18.40;99.90
20070;DHT22;10195;50.868;4.382;2022-07-12T03:07:55;18.30;99.90
20070;DHT22;10195;50.868;4.382;2022-07-12T03:10:20;18.40;99.90
20070;DHT22;10195;50.868;4.382;2022-07-12T03:12:46;18.30;99.90
20070;DHT22;10195;50.868;4.382;2022-07-12T03:15:11;18.20;99.90
20070;DHT22;10195;50.868;4.382;2022-07-12T03:17:37;18.20;99.90
20070;DHT22;10195;50.868;4.382;2022-07-12T03:20:04;18.20;99.90
20070;DHT22;10195;50.868;4.382;2022-07-12T03:22:36;18.20;99.90
20070;DHT22;10195;50.868;4.382;2022-07-12T03:25:01;18.10;99.90
20070;DHT22;10195;50.868;4.382;2022-07-12T03:27:27;18.10;99.90
20070;DHT22;10195;50.868;4.382;2022-07-12T03:29:52;18.00;99.90
20070;DHT22;10195;50.868;4.382;2022-07-12T03:32:18;18.00;99.90
20070;DHT22;10195;50.868;4.382;2022-07-12T03:34:44;18.00;99.90
20070;DHT22;10195;50.868;4.382;2022-07-12T03:37:10;18.00;99.90
20070;DHT22;10195;50.868;4.382;2022-07-12T03:39:35;18.00;99.90
20070;DHT22;10195;50.868;4.382;2022-07-12T03:42:01;18.00;99.90
20070;DHT22;10195;50.868;4.382;2022-07-12T03:44:26;17.90;99.90
20070;DHT22;10195;50.868;4.382;2022-07-12T03:46:52;18.00;99.90
20070;DHT22;10195;50.868;4.382;2022-07-12T03:49:18;18.00;99.90
20070;DHT22;10195;50.868;4.382;2022-07-12T03:51:43;18.00;99.90
20070;DHT22;10195;50.868;4.382;2022-07-12T03:54:09;18.00;99.90
20070;DHT22;10195;50.868;4.382;2022-07-12T03:56:35;18.00;99.90
20070;DHT22;10195;50.868;4.382;2022-07-12T03:59:20;18.00;99.90
20070;DHT22;10195;50.868;4.382;2022-07-12T04:01:46;18.00;99.90
20070;DHT22;10195;50.868;4.382;2022-07-12T04:04:12;18.10;99.90
20070;DHT22;10195;50.868;4.382;2022-07-12T04:06:37;18.10;99.90
20070;DHT22;10195;50.868;4.382;2022-07-12T04:09:04;18.10;99.90
20070;DHT22;10195;50.868;4.382;2022-07-12T04:11:31;18.00;99.90
20070;DHT22;10195;50.868;4.382;2022-07-12T04:13:57;18.00;99.90
20070;DHT22;10195;50.868;4.382;2022-07-12T04:16:22;18.10;99.90
20070;DHT22;10195;50.868;4.382;2022-07-12T04:18:48;18.10;99.90
20070;DHT22;10195;50.868;4.382;2022-07-12T04:21:13;18.20;99.90
20070;DHT22;10195;50.868;4.382;2022-07-12T04:23:39;18.20;99.90
20070;DHT22;10195;50.868;4.382;2022-07-12T04:26:05;18.10;99.90
20070;DHT22;10195;50.868;4.382;2022-07-12T04:28:30;18.20;99.90
20070;DHT22;10195;50.868;4.382;2022-07-12T04:30:56;18.30;99.90
20070;DHT22;10195;50.868;4.382;2022-07-12T04:33:22;18.40;99.90
20070;DHT22;10195;50.868;4.382;2022-07-12T04:35:48;18.40;99.90
20070;DHT22;10195;50.868;4.382;2022-07-12T04:38:14;18.60;99.90
20070;DHT22;10195;50.868;4.382;2022-07-12T04:40:39;18.70;99.90
20070;DHT22;10195;50.868;4.382;2022-07-12T04:43:05;18.80;99.90
20070;DHT22;10195;50.868;4.382;2022-07-12T04:45:31;18.90;99.90
20070;DHT22;10195;50.868;4.382;2022-07-12T04:47:56;19.00;99.90
20070;DHT22;10195;50.868;4.382;2022-07-12T04:50:22;19.10;99.90
20070;DHT22;10195;50.868;4.382;2022-07-12T04:52:48;19.20;99.90
20070;DHT22;10195;50.868;4.382;2022-07-12T04:55:13;19.10;99.90
20070;DHT22;10195;50.868;4.382;2022-07-12T04:57:39;19.10;99.90
20070;DHT22;10195;50.868;4.382;2022-07-12T05:00:05;19.20;99.90
20070;DHT22;10195;50.868;4.382;2022-07-12T05:02:32;19.40;99.90
20070;DHT22;10195;50.868;4.382;2022-07-12T05:04:58;19.60;99.90
20070;DHT22;10195;50.868;4.382;2022-07-12T05:07:23;19.80;99.90
20070;DHT22;10195;50.868;4.382;2022-07-12T05:09:49;19.90;99.90
20070;DHT22;10195;50.868;4.382;2022-07-12T05:12:14;20.10;99.90
20070;DHT22;10195;50.868;4.382;2022-07-12T05:14:40;20.30;99.90
20070;DHT22;10195;50.868;4.382;2022-07-12T05:17:06;20.20;99.90
20070;DHT22;10195;50.868;4.382;2022-07-12T05:19:31;20.30;99.90
20070;DHT22;10195;50.868;4.382;2022-07-12T05:21:57;20.50;99.90
20070;DHT22;10195;50.868;4.382;2022-07-12T05:24:22;20.70;99.90
20070;DHT22;10195;50.868;4.382;2022-07-12T05:26:48;20.80;99.90
20070;DHT22;10195;50.868;4.382;2022-07-12T05:29:13;21.10;99.90
20070;DHT22;10195;50.868;4.382;2022-07-12T05:31:39;21.30;99.90
20070;DHT22;10195;50.868;4.382;2022-07-12T05:34:05;21.10;99.90
20070;DHT22;10195;50.868;4.382;2022-07-12T05:36:30;21.30;99.90
20070;DHT22;10195;50.868;4.382;2022-07-12T05:38:56;21.50;99.90
20070;DHT22;10195;50.868;4.382;2022-07-12T05:41:22;22.20;99.90
20070;DHT22;10195;50.868;4.382;2022-07-12T05:43:48;23.10;99.90
20070;DHT22;10195;50.868;4.382;2022-07-12T05:46:13;23.80;99.90
20070;DHT22;10195;50.868;4.382;2022-07-12T05:48:39;23.80;99.90
20070;DHT22;10195;50.868;4.382;2022-07-12T05:51:05;24.40;99.90
20070;DHT22;10195;50.868;4.382;2022-07-12T05:53:49;23.90;99.90
20070;DHT22;10195;50.868;4.382;2022-07-12T05:56:15;24.30;99.90
20070;DHT22;10195;50.868;4.382;2022-07-12T05:58:40;24.50;99.90
20070;DHT22;10195;50.868;4.382;2022-07-12T06:01:06;24.30;99.90
20070;DHT22;10195;50.868;4.382;2022-07-12T06:03:32;24.20;99.90
20070;DHT22;10195;50.868;4.382;2022-07-12T06:05:58;24.40;99.90
20070;DHT22;10195;50.868;4.382;2022-07-12T06:08:24;24.90;99.90
20070;DHT22;10195;50.868;4.382;2022-07-12T06:10:49;25.40;99.90
20070;DHT22;10195;50.868;4.382;2022-07-12T06:13:15;26.10;99.90
20070;DHT22;10195;50.868;4.382;2022-07-12T06:15:41;26.30;99.90
20070;DHT22;10195;50.868;4.382;2022-07-12T06:18:07;27.00;99.90
20070;DHT22;10195;50.868;4.382;2022-07-12T06:20:32;27.40;99.90
20070;DHT22;10195;50.868;4.382;2022-07-12T06:22:58;27.90;99.90
20070;DHT22;10195;50.868;4.382;2022-07-12T06:25:24;28.70;99.90
20070;DHT22;10195;50.868;4.382;2022-07-12T06:27:50;29.10;99.90
20070;DHT22;10195;50.868;4.382;2022-07-12T06:30:20;29.20;99.90
20070;DHT22;10195;50.868;4.382;2022-07-12T06:32:46;29.20;99.90
20070;DHT22;10195;50.868;4.382;2022-07-12T06:35:12;29.00;99.90
20070;DHT22;10195;50.868;4.382;2022-07-12T06:37:38;28.50;99.90
20070;DHT22;10195;50.868;4.382;2022-07-12T06:40:04;28.00;99.90
20070;DHT22;10195;50.868;4.382;2022-07-12T06:42:30;28.10;99.90
20070;DHT22;10195;50.868;4.382;2022-07-12T06:44:56;27.90;99.90
20070;DHT22;10195;50.868;4.382;2022-07-12T06:47:21;28.00;99.90
20070;DHT22;10195;50.868;4.382;2022-07-12T06:49:47;28.50;99.90
20070;DHT22;10195;50.868;4.382;2022-07-12T06:52:13;28.80;99.90
20070;DHT22;10195;50.868;4.382;2022-07-12T06:54:38;28.60;99.90
20070;DHT22;10195;50.868;4.382;2022-07-12T06:57:04;28.00;99.90
20070;DHT22;10195;50.868;4.382;2022-07-12T06:59:30;28.30;99.90
20070;DHT22;10195;50.868;4.382;2022-07-12T07:01:55;27.70;99.90
20070;DHT22;10195;50.868;4.382;2022-07-12T07:04:23;27.90;99.90
20070;DHT22;10195;50.868;4.382;2022-07-12T07:06:49;27.40;99.90
20070;DHT22;10195;50.868;4.382;2022-07-12T07:09:14;27.20;99.90
20070;DHT22;10195;50.868;4.382;2022-07-12T07:11:40;27.10;99.90
20070;DHT22;10195;50.868;4.382;2022-07-12T07:14:06;27.20;99.90
20070;DHT22;10195;50.868;4.382;2022-07-12T07:16:32;27.30;99.90
20070;DHT22;10195;50.868;4.382;2022-07-12T07:18:58;27.60;99.90
20070;DHT22;10195;50.868;4.382;2022-07-12T07:21:23;27.70;99.90
20070;DHT22;10195;50.868;4.382;2022-07-12T07:23:50;28.60;99.90
20070;DHT22;10195;50.868;4.382;2022-07-12T07:26:16;28.50;99.90
20070;DHT22;10195;50.868;4.382;2022-07-12T07:28:42;28.70;99.90
20070;DHT22;10195;50.868;4.382;2022-07-12T07:31:26;28.40;99.90
20070;DHT22;10195;50.868;4.382;2022-07-12T07:33:52;28.40;99.90
20070;DHT22;10195;50.868;4.382;2022-07-12T07:36:18;28.10;99.90
20070;DHT22;10195;50.868;4.382;2022-07-12T07:38:43;28.50;99.90
20070;DHT22;10195;50.868;4.382;2022-07-12T07:41:09;28.50;99.90
20070;DHT22;10195;50.868;4.382;2022-07-12T07:43:34;29.30;99.90
20070;DHT22;10195;50.868;4.382;2022-07-12T07:46:00;30.30;99.90
20070;DHT22;10195;50.868;4.382;2022-07-12T07:48:27;30.90;99.90
20070;DHT22;10195;50.868;4.382;2022-07-12T07:50:53;29.80;99.90
20070;DHT22;10195;50.868;4.382;2022-07-12T07:53:18;30.10;99.90
20070;DHT22;10195;50.868;4.382;2022-07-12T07:55:44;30.30;99.90
20070;DHT22;10195;50.868;4.382;2022-07-12T07:58:10;29.80;99.90
20070;DHT22;10195;50.868;4.382;2022-07-12T08:00:35;29.30;99.90
20070;DHT22;10195;50.868;4.382;2022-07-12T08:03:01;28.80;99.90
20070;DHT22;10195;50.868;4.382;2022-07-12T08:05:27;28.00;99.90
20070;DHT22;10195;50.868;4.382;2022-07-12T08:07:52;28.70;99.90
20070;DHT22;10195;50.868;4.382;2022-07-12T08:10:18;29.60;99.90
20070;DHT22;10195;50.868;4.382;2022-07-12T08:12:43;29.80;99.90
20070;DHT22;10195;50.868;4.382;2022-07-12T08:15:09;28.90;99.90
20070;DHT22;10195;50.868;4.382;2022-07-12T08:17:35;29.00;99.90
20070;DHT22;10195;50.868;4.382;2022-07-12T08:20:03;29.00;99.90
20070;DHT22;10195;50.868;4.382;2022-07-12T08:22:29;29.00;99.90
20070;DHT22;10195;50.868;4.382;2022-07-12T08:24:55;29.70;99.90
20070;DHT22;10195;50.868;4.382;2022-07-12T08:27:21;30.10;99.90
20070;DHT22;10195;50.868;4.382;2022-07-12T08:29:46;29.40;99.90
20070;DHT22;10195;50.868;4.382;2022-07-12T08:32:12;29.10;99.90
20070;DHT22;10195;50.868;4.382;2022-07-12T08:34:38;29.60;99.90
20070;DHT22;10195;50.868;4.382;2022-07-12T08:37:03;30.20;99.90
20070;DHT22;10195;50.868;4.382;2022-07-12T08:39:29;30.80;99.90
20070;DHT22;10195;50.868;4.382;2022-07-12T08:41:55;31.10;99.90
20070;DHT22;10195;50.868;4.382;2022-07-12T08:44:20;30.40;99.90
20070;DHT22;10195;50.868;4.382;2022-07-12T08:46:46;30.10;99.90
20070;DHT22;10195;50.868;4.382;2022-07-12T08:49:13;30.10;99.90
20070;DHT22;10195;50.868;4.382;2022-07-12T08:51:38;30.30;99.90
20070;DHT22;10195;50.868;4.382;2022-07-12T08:54:12;30.40;99.90
20070;DHT22;10195;50.868;4.382;2022-07-12T08:56:39;30.60;99.90
20070;DHT22;10195;50.868;4.382;2022-07-12T08:59:16;30.50;99.90
20070;DHT22;10195;50.868;4.382;2022-07-12T09:01:50;31.50;99.90
20070;DHT22;10195;50.868;4.382;2022-07-12T09:04:18;32.40;99.90
20070;DHT22;10195;50.868;4.382;2022-07-12T09:06:44;33.00;99.90
20070;DHT22;10195;50.868;4.382;2022-07-12T09:09:11;32.20;99.90
20070;DHT22;10195;50.868;4.382;2022-07-12T09:11:49;33.30;99.90
20070;DHT22;10195;50.868;4.382;2022-07-12T09:14:18;33.60;99.90
20070;DHT22;10195;50.868;4.382;2022-07-12T09:17:04;33.20;99.90
20070;DHT22;10195;50.868;4.382;2022-07-12T09:19:38;32.60;99.90
20070;DHT22;10195;50.868;4.382;2022-07-12T09:22:13;32.30;99.90
20070;DHT22;10195;50.868;4.382;2022-07-12T09:24:39;32.40;99.90
20070;DHT22;10195;50.868;4.382;2022-07-12T09:27:05;32.30;99.90
20070;DHT22;10195;50.868;4.382;2022-07-12T09:29:31;32.30;99.90
20070;DHT22;10195;50.868;4.382;2022-07-12T09:31:58;32.40;99.90
20070;DHT22;10195;50.868;4.382;2022-07-12T09:34:56;31.90;99.90
20070;DHT22;10195;50.868;4.382;2022-07-12T09:37:40;31.80;99.90
20070;DHT22;10195;50.868;4.382;2022-07-12T09:40:09;32.20;99.90
20070;DHT22;10195;50.868;4.382;2022-07-12T09:42:35;32.00;99.90
20070;DHT22;10195;50.868;4.382;2022-07-12T09:45:03;32.00;99.90
20070;DHT22;10195;50.868;4.382;2022-07-12T09:47:30;32.20;99.90
20070;DHT22;10195;50.868;4.382;2022-07-12T09:49:56;31.70;99.90
20070;DHT22;10195;50.868;4.382;2022-07-12T09:52:24;31.40;99.90
20070;DHT22;10195;50.868;4.382;2022-07-12T09:54:51;31.40;99.90
20070;DHT22;10195;50.868;4.382;2022-07-12T09:57:30;31.60;99.90
20070;DHT22;10195;50.868;4.382;2022-07-12T10:00:00;31.90;99.90
20070;DHT22;10195;50.868;4.382;2022-07-12T10:02:27;31.50;99.90
20070;DHT22;10195;50.868;4.382;2022-07-12T10:04:54;31.30;99.90
20070;DHT22;10195;50.868;4.382;2022-07-12T10:07:20;31.60;99.90
20070;DHT22;10195;50.868;4.382;2022-07-12T10:09:53;31.40;99.90
20070;DHT22;10195;50.868;4.382;2022-07-12T10:12:20;30.80;99.90
20070;DHT22;10195;50.868;4.382;2022-07-12T10:14:55;30.70;99.90
20070;DHT22;10195;50.868;4.382;2022-07-12T10:17:23;30.50;99.90
20070;DHT22;10195;50.868;4.382;2022-07-12T10:19:49;30.50;99.90
20070;DHT22;10195;50.868;4.382;2022-07-12T10:22:35;29.60;99.90
20070;DHT22;10195;50.868;4.382;2022-07-12T10:25:00;29.50;99.90
20070;DHT22;10195;50.868;4.382;2022-07-12T10:27:27;29.50;99.90
20070;DHT22;10195;50.868;4.382;2022-07-12T10:30:15;29.80;99.90
20070;DHT22;10195;50.868;4.382;2022-07-12T10:32:43;29.80;99.90
20070;DHT22;10195;50.868;4.382;2022-07-12T10:35:16;30.00;99.90
20070;DHT22;10195;50.868;4.382;2022-07-12T10:40:36;30.50;99.90
20070;DHT22;10195;50.868;4.382;2022-07-12T10:45:31;30.90;99.90
20070;DHT22;10195;50.868;4.382;2022-07-12T10:48:02;30.60;99.90
20070;DHT22;10195;50.868;4.382;2022-07-12T10:53:32;31.10;99.90
20070;DHT22;10195;50.868;4.382;2022-07-12T10:56:13;31.10;99.90
20070;DHT22;10195;50.868;4.382;2022-07-12T10:58:55;30.80;99.90
20070;DHT22;10195;50.868;4.382;2022-07-12T11:01:22;30.90;99.90
20070;DHT22;10195;50.868;4.382;2022-07-12T11:06:22;30.10;99.90
20070;DHT22;10195;50.868;4.382;2022-07-12T11:11:21;29.50;99.90
20070;DHT22;10195;50.868;4.382;2022-07-12T11:13:47;29.40;99.90
20070;DHT22;10195;50.868;4.382;2022-07-12T11:16:13;29.10;99.90
20070;DHT22;10195;50.868;4.382;2022-07-12T11:18:38;29.00;99.90
20070;DHT22;10195;50.868;4.382;2022-07-12T11:21:05;28.90;99.90
20070;DHT22;10195;50.868;4.382;2022-07-12T11:23:31;29.00;99.90
20070;DHT22;10195;50.868;4.382;2022-07-12T11:25:59;29.00;99.90
20070;DHT22;10195;50.868;4.382;2022-07-12T11:28:26;28.80;99.90
20070;DHT22;10195;50.868;4.382;2022-07-12T11:31:00;28.80;99.90
20070;DHT22;10195;50.868;4.382;2022-07-12T11:33:28;28.60;99.90
20070;DHT22;10195;50.868;4.382;2022-07-12T11:35:55;28.90;99.90
20070;DHT22;10195;50.868;4.382;2022-07-12T11:38:25;29.30;99.90
20070;DHT22;10195;50.868;4.382;2022-07-12T11:40:58;29.50;99.50
20070;DHT22;10195;50.868;4.382;2022-07-12T11:43:25;29.50;99.50
20070;DHT22;10195;50.868;4.382;2022-07-12T11:45:52;29.20;99.90
20070;DHT22;10195;50.868;4.382;2022-07-12T11:48:19;29.10;99.90
20070;DHT22;10195;50.868;4.382;2022-07-12T11:50:45;29.20;99.90
20070;DHT22;10195;50.868;4.382;2022-07-12T11:53:20;29.40;99.90
20070;DHT22;10195;50.868;4.382;2022-07-12T11:55:49;29.60;99.90
20070;DHT22;10195;50.868;4.382;2022-07-12T11:58:16;29.90;99.90
20070;DHT22;10195;50.868;4.382;2022-07-12T12:00:43;30.10;99.90
20070;DHT22;10195;50.868;4.382;2022-07-12T12:03:09;30.20;99.90
20070;DHT22;10195;50.868;4.382;2022-07-12T12:05:35;30.40;99.90
20070;DHT22;10195;50.868;4.382;2022-07-12T12:08:06;30.50;99.90
20070;DHT22;10195;50.868;4.382;2022-07-12T12:10:32;30.30;99.90
20070;DHT22;10195;50.868;4.382;2022-07-12T12:12:59;30.40;99.90
20070;DHT22;10195;50.868;4.382;2022-07-12T12:15:27;30.40;99.60
20070;DHT22;10195;50.868;4.382;2022-07-12T12:18:04;30.40;98.80
20070;DHT22;10195;50.868;4.382;2022-07-12T12:20:32;30.20;99.00
20070;DHT22;10195;50.868;4.382;2022-07-12T12:22:59;30.30;98.80
20070;DHT22;10195;50.868;4.382;2022-07-12T12:25:26;30.60;98.90
20070;DHT22;10195;50.868;4.382;2022-07-12T12:27:57;30.60;99.30
20070;DHT22;10195;50.868;4.382;2022-07-12T12:30:24;30.70;99.30
20070;DHT22;10195;50.868;4.382;2022-07-12T12:32:53;30.60;98.50
20070;DHT22;10195;50.868;4.382;2022-07-12T12:35:29;30.20;99.10
20070;DHT22;10195;50.868;4.382;2022-07-12T12:38:00;30.30;99.80
20070;DHT22;10195;50.868;4.382;2022-07-12T12:40:30;30.70;99.90
20070;DHT22;10195;50.868;4.382;2022-07-12T12:43:11;30.60;99.90
20070;DHT22;10195;50.868;4.382;2022-07-12T12:45:51;30.50;99.90
20070;DHT22;10195;50.868;4.382;2022-07-12T12:48:25;30.60;99.90
20070;DHT22;10195;50.868;4.382;2022-07-12T12:51:01;30.90;99.20
20070;DHT22;10195;50.868;4.382;2022-07-12T12:53:28;31.30;99.80
20070;DHT22;10195;50.868;4.382;2022-07-12T12:55:54;31.50;98.80
20070;DHT22;10195;50.868;4.382;2022-07-12T12:58:23;30.90;97.90
20070;DHT22;10195;50.868;4.382;2022-07-12T13:00:50;31.00;99.20
20070;DHT22;10195;50.868;4.382;2022-07-12T13:03:18;31.00;98.50
20070;DHT22;10195;50.868;4.382;2022-07-12T13:05:44;31.20;99.10
20070;DHT22;10195;50.868;4.382;2022-07-12T13:08:11;31.50;98.00
20070;DHT22;10195;50.868;4.382;2022-07-12T13:10:38;31.50;97.60
20070;DHT22;10195;50.868;4.382;2022-07-12T13:13:04;31.60;97.50
20070;DHT22;10195;50.868;4.382;2022-07-12T13:15:31;31.40;96.90
20070;DHT22;10195;50.868;4.382;2022-07-12T13:17:57;31.00;96.80
20070;DHT22;10195;50.868;4.382;2022-07-12T13:20:24;30.90;96.60
20070;DHT22;10195;50.868;4.382;2022-07-12T13:22:51;30.90;97.90
20070;DHT22;10195;50.868;4.382;2022-07-12T13:25:17;31.10;97.60
20070;DHT22;10195;50.868;4.382;2022-07-12T13:27:43;31.10;96.30
20070;DHT22;10195;50.868;4.382;2022-07-12T13:30:11;31.60;96.10
20070;DHT22;10195;50.868;4.382;2022-07-12T13:32:37;31.70;95.40
20070;DHT22;10195;50.868;4.382;2022-07-12T13:35:04;31.20;95.50
20070;DHT22;10195;50.868;4.382;2022-07-12T13:37:30;30.90;95.60
20070;DHT22;10195;50.868;4.382;2022-07-12T13:39:56;30.20;96.10
20070;DHT22;10195;50.868;4.382;2022-07-12T13:42:54;30.40;97.30
20070;DHT22;10195;50.868;4.382;2022-07-12T13:45:22;30.70;96.10
20070;DHT22;10195;50.868;4.382;2022-07-12T13:47:49;31.20;95.40
20070;DHT22;10195;50.868;4.382;2022-07-12T13:50:16;31.30;94.70
20070;DHT22;10195;50.868;4.382;2022-07-12T13:52:43;31.00;95.30
20070;DHT22;10195;50.868;4.382;2022-07-12T13:55:11;31.00;94.70
20070;DHT22;10195;50.868;4.382;2022-07-12T13:57:37;31.20;95.70
20070;DHT22;10195;50.868;4.382;2022-07-12T14:00:15;31.50;93.10
20070;DHT22;10195;50.868;4.382;2022-07-12T14:02:46;31.50;94.00
20070;DHT22;10195;50.868;4.382;2022-07-12T14:05:16;31.40;93.10
20070;DHT22;10195;50.868;4.382;2022-07-12T14:07:43;31.50;91.30
20070;DHT22;10195;50.868;4.382;2022-07-12T14:10:10;31.10;93.60
20070;DHT22;10195;50.868;4.382;2022-07-12T14:12:37;31.00;93.30
20070;DHT22;10195;50.868;4.382;2022-07-12T14:15:03;31.00;93.60
20070;DHT22;10195;50.868;4.382;2022-07-12T14:17:49;31.10;94.10
20070;DHT22;10195;50.868;4.382;2022-07-12T14:20:18;30.90;91.00
20070;DHT22;10195;50.868;4.382;2022-07-12T14:22:44;31.10;92.30
20070;DHT22;10195;50.868;4.382;2022-07-12T14:25:10;31.30;90.60
20070;DHT22;10195;50.868;4.382;2022-07-12T14:27:37;31.60;91.30
20070;DHT22;10195;50.868;4.382;2022-07-12T14:30:04;31.50;91.20
20070;DHT22;10195;50.868;4.382;2022-07-12T14:32:30;31.50;91.30
20070;DHT22;10195;50.868;4.382;2022-07-12T14:34:55;31.50;91.50
20070;DHT22;10195;50.868;4.382;2022-07-12T14:37:21;31.50;92.00
20070;DHT22;10195;50.868;4.382;2022-07-12T14:39:46;31.50;92.50
20070;DHT22;10195;50.868;4.382;2022-07-12T14:42:14;31.60;92.40
20070;DHT22;10195;50.868;4.382;2022-07-12T14:44:39;31.60;92.30
20070;DHT22;10195;50.868;4.382;2022-07-12T14:47:05;31.10;93.70
20070;DHT22;10195;50.868;4.382;2022-07-12T14:49:30;30.90;93.40
20070;DHT22;10195;50.868;4.382;2022-07-12T14:51:56;31.00;91.70
20070;DHT22;10195;50.868;4.382;2022-07-12T14:54:23;31.30;92.10
20070;DHT22;10195;50.868;4.382;2022-07-12T14:56:49;31.60;90.80
20070;DHT22;10195;50.868;4.382;2022-07-12T14:59:14;31.90;90.20
20070;DHT22;10195;50.868;4.382;2022-07-12T15:01:40;31.90;89.60
20070;DHT22;10195;50.868;4.382;2022-07-12T15:04:06;32.10;90.00
20070;DHT22;10195;50.868;4.382;2022-07-12T15:06:31;32.20;90.10
20070;DHT22;10195;50.868;4.382;2022-07-12T15:08:57;32.30;89.00
20070;DHT22;10195;50.868;4.382;2022-07-12T15:11:23;32.30;88.80
20070;DHT22;10195;50.868;4.382;2022-07-12T15:13:50;32.20;87.20
20070;DHT22;10195;50.868;4.382;2022-07-12T15:16:16;32.30;85.10
20070;DHT22;10195;50.868;4.382;2022-07-12T15:18:41;32.30;84.20
20070;DHT22;10195;50.868;4.382;2022-07-12T15:21:07;32.30;84.40
20070;DHT22;10195;50.868;4.382;2022-07-12T15:23:32;32.40;85.10
20070;DHT22;10195;50.868;4.382;2022-07-12T15:25:58;32.30;83.90
20070;DHT22;10195;50.868;4.382;2022-07-12T15:28:28;32.50;82.60
20070;DHT22;10195;50.868;4.382;2022-07-12T15:30:55;32.70;82.50
20070;DHT22;10195;50.868;4.382;2022-07-12T15:33:21;32.90;80.30
20070;DHT22;10195;50.868;4.382;2022-07-12T15:35:47;32.90;80.80
20070;DHT22;10195;50.868;4.382;2022-07-12T15:38:13;32.80;77.40
20070;DHT22;10195;50.868;4.382;2022-07-12T15:40:38;32.80;75.80
20070;DHT22;10195;50.868;4.382;2022-07-12T15:43:04;32.60;74.70
20070;DHT22;10195;50.868;4.382;2022-07-12T15:45:30;32.50;76.80
20070;DHT22;10195;50.868;4.382;2022-07-12T15:47:56;32.30;77.40